sensor_id;sensor_type;location;lat;lon;timestamp;temperature;humidity
11922;DHT22;6021;51.182;3.160;2023-03-14T00:02:00;9.90;99.90
11922;DHT22;6021;51.182;3.160;2023-03-14T00:04:30;9.90;99.90
11922;DHT22;6021;51.182;3.160;2023-03-14T00:07:00;10.00;99.90
11922;DHT22;6021;51.182;3.160;2023-03-14T00:09:33;9.90;99.90
11922;DHT22;6021;51.182;3.160;2023-03-14T00:12:08;10.00;99.90
11922;DHT22;6021;51.182;3.160;2023-03-14T00:14:41;9.90;99.90
11922;DHT22;6021;51.182;3.160;2023-03-14T00:17:17;9.80;99.90
11922;DHT22;6021;51.182;3.160;2023-03-14T00:20:06;9.80;99.90
11922;DHT22;6021;51.182;3.160;2023-03-14T00:22:27;9.70;99.90
11922;DHT22;6021;51.182;3.160;2023-03-14T00:25:02;9.80;99.90
11922;DHT22;6021;51.182;3.160;2023-03-14T00:27:35;9.90;99.90
11922;DHT22;6021;51.182;3.160;2023-03-14T00:30:04;9.90;99.90
11922;DHT22;6021;51.182;3.160;2023-03-14T00:32:34;9.70;99.90
11922;DHT22;6021;51.182;3.160;2023-03-14T00:35:06;9.70;99.90
11922;DHT22;6021;51.182;3.160;2023-03-14T00:37:36;10.00;99.90
11922;DHT22;6021;51.182;3.160;2023-03-14T00:40:05;10.00;99.90
11922;DHT22;6021;51.182;3.160;2023-03-14T00:42:40;10.00;99.90
11922;DHT22;6021;51.182;3.160;2023-03-14T00:45:09;10.00;99.90
11922;DHT22;6021;51.182;3.160;2023-03-14T00:47:38;10.10;99.90
11922;DHT22;6021;51.182;3.160;2023-03-14T00:50:07;10.20;99.90
11922;DHT22;6021;51.182;3.160;2023-03-14T00:52:41;10.00;99.90
11922;DHT22;6021;51.182;3.160;2023-03-14T00:55:12;10.00;99.90
11922;DHT22;6021;51.182;3.160;2023-03-14T00:57:42;10.40;99.90
11922;DHT22;6021;51.182;3.160;2023-03-14T01:00:19;10.10;99.90
11922;DHT22;6021;51.182;3.160;2023-03-14T01:02:51;10.30;99.90
11922;DHT22;6021;51.182;3.160;2023-03-14T01:08:25;10.40;99.90
11922;DHT22;6021;51.182;3.160;2023-03-14T01:10:48;10.40;99.90
11922;DHT22;6021;51.182;3.160;2023-03-14T01:13:17;10.30;99.90
11922;DHT22;6021;51.182;3.160;2023-03-14T01:15:54;10.30;99.90
11922;DHT22;6021;51.182;3.160;2023-03-14T01:18:34;10.30;99.90
11922;DHT22;6021;51.182;3.160;2023-03-14T01:21:35;10.30;99.90
11922;DHT22;6021;51.182;3.160;2023-03-14T01:27:06;10.50;99.90
11922;DHT22;6021;51.182;3.160;2023-03-14T01:29:39;10.40;99.90
11922;DHT22;6021;51.182;3.160;2023-03-14T01:32:51;10.30;99.90
11922;DHT22;6021;51.182;3.160;2023-03-14T01:34:55;10.40;99.90
11922;DHT22;6021;51.182;3.160;2023-03-14T01:37:31;10.30;99.90
11922;DHT22;6021;51.182;3.160;2023-03-14T01:40:05;10.40;99.90
11922;DHT22;6021;51.182;3.160;2023-03-14T01:42:34;10.30;99.90
11922;DHT22;6021;51.182;3.160;2023-03-14T01:45:03;10.20;99.90
11922;DHT22;6021;51.182;3.160;2023-03-14T01:48:15;10.30;99.90
11922;DHT22;6021;51.182;3.160;2023-03-14T01:50:29;10.40;99.90
11922;DHT22;6021;51.182;3.160;2023-03-14T01:53:13;10.40;99.90
11922;DHT22;6021;51.182;3.160;2023-03-14T01:56:04;10.40;99.90
11922;DHT22;6021;51.182;3.160;2023-03-14T01:58:36;10.30;99.90
11922;DHT22;6021;51.182;3.160;2023-03-14T02:01:07;10.60;99.90
11922;DHT22;6021;51.182;3.160;2023-03-14T02:03:52;10.50;99.90
11922;DHT22;6021;51.182;3.160;2023-03-14T02:06:26;10.50;99.90
11922;DHT22;6021;51.182;3.160;2023-03-14T02:08:56;10.60;99.90
11922;DHT22;6021;51.182;3.160;2023-03-14T02:11:41;10.30;99.90
11922;DHT22;6021;51.182;3.160;2023-03-14T02:17:09;10.60;99.90
11922;DHT22;6021;51.182;3.160;2023-03-14T02:22:38;10.40;99.90
11922;DHT22;6021;51.182;3.160;2023-03-14T02:25:33;10.50;99.90
11922;DHT22;6021;51.182;3.160;2023-03-14T02:28:11;10.40;99.90
11922;DHT22;6021;51.182;3.160;2023-03-14T02:30:52;10.30;99.90
11922;DHT22;6021;51.182;3.160;2023-03-14T02:33:21;10.40;99.90
11922;DHT22;6021;51.182;3.160;2023-03-14T02:35:59;10.30;99.90
11922;DHT22;6021;51.182;3.160;2023-03-14T02:41:22;10.60;99.90
11922;DHT22;6021;51.182;3.160;2023-03-14T02:43:51;10.60;99.90
11922;DHT22;6021;51.182;3.160;2023-03-14T02:46:30;10.60;99.90
11922;DHT22;6021;51.182;3.160;2023-03-14T02:51:50;10.60;99.90
11922;DHT22;6021;51.182;3.160;2023-03-14T02:54:23;10.70;99.90
11922;DHT22;6021;51.182;3.160;2023-03-14T02:57:06;10.70;99.90
11922;DHT22;6021;51.182;3.160;2023-03-14T02:59:32;10.60;99.90
11922;DHT22;6021;51.182;3.160;2023-03-14T03:02:06;10.50;99.90
11922;DHT22;6021;51.182;3.160;2023-03-14T03:04:39;10.50;99.90
11922;DHT22;6021;51.182;3.160;2023-03-14T03:07:14;10.40;99.90
11922;DHT22;6021;51.182;3.160;2023-03-14T03:09:56;10.50;99.90
11922;DHT22;6021;51.182;3.160;2023-03-14T03:12:24;10.50;99.90
11922;DHT22;6021;51.182;3.160;2023-03-14T03:15:12;10.50;99.90
11922;DHT22;6021;51.182;3.160;2023-03-14T03:17:47;10.60;99.90
11922;DHT22;6021;51.182;3.160;2023-03-14T03:20:24;10.70;99.90
11922;DHT22;6021;51.182;3.160;2023-03-14T03:22:55;10.70;99.90
11922;DHT22;6021;51.182;3.160;2023-03-14T03:25:27;10.60;99.90
11922;DHT22;6021;51.182;3.160;2023-03-14T03:28:01;10.50;99.90
11922;DHT22;6021;51.182;3.160;2023-03-14T03:30:42;10.40;99.90
11922;DHT22;6021;51.182;3.160;2023-03-14T03:33:17;10.50;99.90
11922;DHT22;6021;51.182;3.160;2023-03-14T03:35:53;10.40;99.90
11922;DHT22;6021;51.182;3.160;2023-03-14T03:44:19;10.50;99.90
11922;DHT22;6021;51.182;3.160;2023-03-14T03:47:00;10.60;99.90
11922;DHT22;6021;51.182;3.160;2023-03-14T03:49:37;10.40;99.90
11922;DHT22;6021;51.182;3.160;2023-03-14T03:52:15;10.50;99.90
11922;DHT22;6021;51.182;3.160;2023-03-14T03:54:54;10.30;99.90
11922;DHT22;6021;51.182;3.160;2023-03-14T03:57:19;10.40;99.90
11922;DHT22;6021;51.182;3.160;2023-03-14T03:59:57;10.40;99.90
11922;DHT22;6021;51.182;3.160;2023-03-14T04:03:00;10.30;99.90
11922;DHT22;6021;51.182;3.160;2023-03-14T04:05:26;10.40;99.90
11922;DHT22;6021;51.182;3.160;2023-03-14T04:08:16;10.30;99.90
11922;DHT22;6021;51.182;3.160;2023-03-14T04:11:26;10.50;99.90
11922;DHT22;6021;51.182;3.160;2023-03-14T04:13:57;10.60;99.90
11922;DHT22;6021;51.182;3.160;2023-03-14T04:16:30;10.50;99.90
11922;DHT22;6021;51.182;3.160;2023-03-14T04:18:59;10.40;99.90
11922;DHT22;6021;51.182;3.160;2023-03-14T04:21:34;10.50;99.90
11922;DHT22;6021;51.182;3.160;2023-03-14T04:24:26;10.50;99.90
11922;DHT22;6021;51.182;3.160;2023-03-14T04:27:06;10.10;99.90
11922;DHT22;6021;51.182;3.160;2023-03-14T04:29:42;10.30;99.90
11922;DHT22;6021;51.182;3.160;2023-03-14T04:35:02;10.10;99.90
11922;DHT22;6021;51.182;3.160;2023-03-14T04:37:38;10.10;99.90
11922;DHT22;6021;51.182;3.160;2023-03-14T04:40:17;10.20;99.90
11922;DHT22;6021;51.182;3.160;2023-03-14T04:42:51;10.00;99.90
11922;DHT22;6021;51.182;3.160;2023-03-14T04:45:29;10.00;99.90
11922;DHT22;6021;51.182;3.160;2023-03-14T04:47:57;9.90;99.90
11922;DHT22;6021;51.182;3.160;2023-03-14T04:50:47;9.80;99.90
11922;DHT22;6021;51.182;3.160;2023-03-14T04:53:27;9.70;99.90
11922;DHT22;6021;51.182;3.160;2023-03-14T04:56:15;9.80;99.90
11922;DHT22;6021;51.182;3.160;2023-03-14T04:58:30;9.60;99.90
11922;DHT22;6021;51.182;3.160;2023-03-14T05:03:56;8.80;99.90
11922;DHT22;6021;51.182;3.160;2023-03-14T05:06:30;8.70;99.90
11922;DHT22;6021;51.182;3.160;2023-03-14T05:12:06;8.50;99.90
11922;DHT22;6021;51.182;3.160;2023-03-14T05:14:42;8.30;99.90
11922;DHT22;6021;51.182;3.160;2023-03-14T05:17:50;8.30;99.90
11922;DHT22;6021;51.182;3.160;2023-03-14T05:20:36;8.10;99.90
11922;DHT22;6021;51.182;3.160;2023-03-14T05:23:07;8.00;99.90
11922;DHT22;6021;51.182;3.160;2023-03-14T05:25:37;7.80;99.90
11922;DHT22;6021;51.182;3.160;2023-03-14T05:28:06;7.60;99.90
11922;DHT22;6021;51.182;3.160;2023-03-14T05:30:35;7.60;99.90
11922;DHT22;6021;51.182;3.160;2023-03-14T05:33:03;7.60;99.90
11922;DHT22;6021;51.182;3.160;2023-03-14T05:35:31;7.70;99.90
11922;DHT22;6021;51.182;3.160;2023-03-14T05:38:01;7.70;99.90
11922;DHT22;6021;51.182;3.160;2023-03-14T05:40:30;7.50;99.90
11922;DHT22;6021;51.182;3.160;2023-03-14T05:42:58;7.60;99.90
11922;DHT22;6021;51.182;3.160;2023-03-14T05:45:26;7.50;99.90
11922;DHT22;6021;51.182;3.160;2023-03-14T05:47:57;7.50;99.90
11922;DHT22;6021;51.182;3.160;2023-03-14T05:50:26;7.60;99.90
11922;DHT22;6021;51.182;3.160;2023-03-14T05:52:54;7.60;99.90
11922;DHT22;6021;51.182;3.160;2023-03-14T05:55:25;7.50;99.90
11922;DHT22;6021;51.182;3.160;2023-03-14T05:57:54;7.40;99.90
11922;DHT22;6021;51.182;3.160;2023-03-14T06:00:23;7.30;99.90
11922;DHT22;6021;51.182;3.160;2023-03-14T06:02:52;7.60;99.90
11922;DHT22;6021;51.182;3.160;2023-03-14T06:05:20;7.60;99.90
11922;DHT22;6021;51.182;3.160;2023-03-14T06:07:48;7.40;99.90
11922;DHT22;6021;51.182;3.160;2023-03-14T06:10:18;7.40;99.90
11922;DHT22;6021;51.182;3.160;2023-03-14T06:12:47;7.70;99.90
11922;DHT22;6021;51.182;3.160;2023-03-14T06:15:17;7.70;99.90
11922;DHT22;6021;51.182;3.160;2023-03-14T06:17:46;7.70;99.90
11922;DHT22;6021;51.182;3.160;2023-03-14T06:20:15;7.40;99.90
11922;DHT22;6021;51.182;3.160;2023-03-14T06:22:44;7.30;99.90
11922;DHT22;6021;51.182;3.160;2023-03-14T06:25:12;7.30;99.90
11922;DHT22;6021;51.182;3.160;2023-03-14T06:27:40;7.30;99.90
11922;DHT22;6021;51.182;3.160;2023-03-14T06:30:09;7.30;99.90
11922;DHT22;6021;51.182;3.160;2023-03-14T06:32:38;7.60;99.90
11922;DHT22;6021;51.182;3.160;2023-03-14T06:35:07;7.40;99.90
11922;DHT22;6021;51.182;3.160;2023-03-14T06:37:38;7.70;99.90
11922;DHT22;6021;51.182;3.160;2023-03-14T06:40:08;7.50;99.90
11922;DHT22;6021;51.182;3.160;2023-03-14T06:42:36;7.30;99.90
11922;DHT22;6021;51.182;3.160;2023-03-14T06:45:05;7.60;99.90
11922;DHT22;6021;51.182;3.160;2023-03-14T06:47:34;7.40;99.90
11922;DHT22;6021;51.182;3.160;2023-03-14T06:50:08;7.40;99.90
11922;DHT22;6021;51.182;3.160;2023-03-14T06:52:37;7.30;99.90
11922;DHT22;6021;51.182;3.160;2023-03-14T06:55:07;7.40;99.90
11922;DHT22;6021;51.182;3.160;2023-03-14T06:57:36;7.30;99.90
11922;DHT22;6021;51.182;3.160;2023-03-14T07:00:05;7.10;99.90
11922;DHT22;6021;51.182;3.160;2023-03-14T07:02:33;7.20;99.90
11922;DHT22;6021;51.182;3.160;2023-03-14T07:05:02;6.90;99.90
11922;DHT22;6021;51.182;3.160;2023-03-14T07:07:30;7.10;99.90
11922;DHT22;6021;51.182;3.160;2023-03-14T07:09:59;6.60;99.90
11922;DHT22;6021;51.182;3.160;2023-03-14T07:12:27;6.70;99.90
11922;DHT22;6021;51.182;3.160;2023-03-14T07:14:56;6.90;99.90
11922;DHT22;6021;51.182;3.160;2023-03-14T07:17:25;6.70;99.90
11922;DHT22;6021;51.182;3.160;2023-03-14T07:19:54;6.70;99.90
11922;DHT22;6021;51.182;3.160;2023-03-14T07:22:24;6.60;99.90
11922;DHT22;6021;51.182;3.160;2023-03-14T07:24:53;6.60;99.90
11922;DHT22;6021;51.182;3.160;2023-03-14T07:27:21;6.80;99.90
11922;DHT22;6021;51.182;3.160;2023-03-14T07:29:49;6.50;99.90
11922;DHT22;6021;51.182;3.160;2023-03-14T07:32:18;6.50;99.90
11922;DHT22;6021;51.182;3.160;2023-03-14T07:34:46;6.40;99.90
11922;DHT22;6021;51.182;3.160;2023-03-14T07:37:15;6.80;99.90
11922;DHT22;6021;51.182;3.160;2023-03-14T07:39:43;6.50;99.90
11922;DHT22;6021;51.182;3.160;2023-03-14T07:42:11;6.60;99.90
11922;DHT22;6021;51.182;3.160;2023-03-14T07:44:40;6.50;99.90
11922;DHT22;6021;51.182;3.160;2023-03-14T07:47:08;6.40;99.90
11922;DHT22;6021;51.182;3.160;2023-03-14T07:49:37;6.40;99.90
11922;DHT22;6021;51.182;3.160;2023-03-14T07:52:05;6.30;99.90
11922;DHT22;6021;51.182;3.160;2023-03-14T07:54:34;6.50;99.90
11922;DHT22;6021;51.182;3.160;2023-03-14T07:57:02;6.30;99.90
11922;DHT22;6021;51.182;3.160;2023-03-14T07:59:31;6.40;99.90
11922;DHT22;6021;51.182;3.160;2023-03-14T08:01:59;6.30;99.90
11922;DHT22;6021;51.182;3.160;2023-03-14T08:04:28;6.40;99.90
11922;DHT22;6021;51.182;3.160;2023-03-14T08:06:56;6.20;99.90
11922;DHT22;6021;51.182;3.160;2023-03-14T08:09:24;6.30;99.90
11922;DHT22;6021;51.182;3.160;2023-03-14T08:11:53;6.30;99.90
11922;DHT22;6021;51.182;3.160;2023-03-14T08:14:21;6.40;99.90
11922;DHT22;6021;51.182;3.160;2023-03-14T08:16:51;6.40;99.90
11922;DHT22;6021;51.182;3.160;2023-03-14T08:19:20;6.50;99.90
11922;DHT22;6021;51.182;3.160;2023-03-14T08:21:49;6.40;99.90
11922;DHT22;6021;51.182;3.160;2023-03-14T08:24:18;6.50;99.90
11922;DHT22;6021;51.182;3.160;2023-03-14T08:26:46;6.60;99.90
11922;DHT22;6021;51.182;3.160;2023-03-14T08:29:15;6.70;99.90
11922;DHT22;6021;51.182;3.160;2023-03-14T08:31:44;6.80;99.90
11922;DHT22;6021;51.182;3.160;2023-03-14T08:34:14;6.80;99.90
11922;DHT22;6021;51.182;3.160;2023-03-14T08:36:43;6.50;99.90
11922;DHT22;6021;51.182;3.160;2023-03-14T08:39:11;6.40;99.90
11922;DHT22;6021;51.182;3.160;2023-03-14T08:41:39;6.50;99.90
11922;DHT22;6021;51.182;3.160;2023-03-14T08:44:10;6.60;99.90
11922;DHT22;6021;51.182;3.160;2023-03-14T08:46:39;6.70;99.90
11922;DHT22;6021;51.182;3.160;2023-03-14T08:49:07;6.60;99.90
11922;DHT22;6021;51.182;3.160;2023-03-14T08:51:37;6.50;99.90
11922;DHT22;6021;51.182;3.160;2023-03-14T08:54:06;6.30;99.90
11922;DHT22;6021;51.182;3.160;2023-03-14T08:56:36;6.40;99.90
11922;DHT22;6021;51.182;3.160;2023-03-14T08:59:06;6.50;99.90
11922;DHT22;6021;51.182;3.160;2023-03-14T09:01:35;6.80;99.90
11922;DHT22;6021;51.182;3.160;2023-03-14T09:04:03;6.40;99.90
11922;DHT22;6021;51.182;3.160;2023-03-14T09:06:32;6.70;99.90
11922;DHT22;6021;51.182;3.160;2023-03-14T09:09:01;6.60;99.90
11922;DHT22;6021;51.182;3.160;2023-03-14T09:11:29;6.60;99.90
11922;DHT22;6021;51.182;3.160;2023-03-14T09:13:58;6.70;99.90
11922;DHT22;6021;51.182;3.160;2023-03-14T09:16:26;6.30;99.90
11922;DHT22;6021;51.182;3.160;2023-03-14T09:18:55;6.50;99.90
11922;DHT22;6021;51.182;3.160;2023-03-14T09:21:26;6.50;99.90
11922;DHT22;6021;51.182;3.160;2023-03-14T09:23:54;6.30;99.90
11922;DHT22;6021;51.182;3.160;2023-03-14T09:26:22;6.50;99.90
11922;DHT22;6021;51.182;3.160;2023-03-14T09:28:51;6.30;99.90
11922;DHT22;6021;51.182;3.160;2023-03-14T09:31:19;6.40;99.90
11922;DHT22;6021;51.182;3.160;2023-03-14T09:33:49;6.10;99.90
11922;DHT22;6021;51.182;3.160;2023-03-14T09:36:17;6.50;99.90
11922;DHT22;6021;51.182;3.160;2023-03-14T09:38:46;6.20;99.90
11922;DHT22;6021;51.182;3.160;2023-03-14T09:41:33;6.10;99.90
11922;DHT22;6021;51.182;3.160;2023-03-14T09:44:08;6.00;99.90
11922;DHT22;6021;51.182;3.160;2023-03-14T09:46:37;6.30;99.90
11922;DHT22;6021;51.182;3.160;2023-03-14T09:49:13;6.50;99.90
11922;DHT22;6021;51.182;3.160;2023-03-14T09:51:37;6.30;99.90
11922;DHT22;6021;51.182;3.160;2023-03-14T09:54:14;6.50;99.90
11922;DHT22;6021;51.182;3.160;2023-03-14T09:56:39;6.20;99.90
11922;DHT22;6021;51.182;3.160;2023-03-14T09:59:09;6.30;99.90
11922;DHT22;6021;51.182;3.160;2023-03-14T10:01:40;6.50;99.90
11922;DHT22;6021;51.182;3.160;2023-03-14T10:04:14;6.20;99.90
11922;DHT22;6021;51.182;3.160;2023-03-14T10:06:43;6.30;99.90
11922;DHT22;6021;51.182;3.160;2023-03-14T10:09:15;6.50;99.90
11922;DHT22;6021;51.182;3.160;2023-03-14T10:11:43;6.60;99.90
11922;DHT22;6021;51.182;3.160;2023-03-14T10:14:12;6.60;99.90
11922;DHT22;6021;51.182;3.160;2023-03-14T10:16:43;6.50;99.90
11922;DHT22;6021;51.182;3.160;2023-03-14T10:19:14;6.20;99.90
11922;DHT22;6021;51.182;3.160;2023-03-14T10:21:44;6.40;99.90
11922;DHT22;6021;51.182;3.160;2023-03-14T10:24:22;6.80;99.90
11922;DHT22;6021;51.182;3.160;2023-03-14T10:26:59;6.60;99.90
11922;DHT22;6021;51.182;3.160;2023-03-14T10:29:33;6.80;99.90
11922;DHT22;6021;51.182;3.160;2023-03-14T10:32:04;7.10;99.90
11922;DHT22;6021;51.182;3.160;2023-03-14T10:34:35;6.90;99.90
11922;DHT22;6021;51.182;3.160;2023-03-14T10:37:18;7.00;99.90
11922;DHT22;6021;51.182;3.160;2023-03-14T10:39:53;6.90;99.90
11922;DHT22;6021;51.182;3.160;2023-03-14T10:42:26;7.10;99.90
11922;DHT22;6021;51.182;3.160;2023-03-14T10:44:59;7.10;99.90
11922;DHT22;6021;51.182;3.160;2023-03-14T10:47:28;7.00;99.90
11922;DHT22;6021;51.182;3.160;2023-03-14T10:49:57;7.10;99.90
11922;DHT22;6021;51.182;3.160;2023-03-14T10:52:29;7.50;99.90
11922;DHT22;6021;51.182;3.160;2023-03-14T10:55:01;7.50;99.90
11922;DHT22;6021;51.182;3.160;2023-03-14T10:57:29;7.60;99.90
11922;DHT22;6021;51.182;3.160;2023-03-14T10:59:58;7.70;99.90
11922;DHT22;6021;51.182;3.160;2023-03-14T11:08:13;6.90;99.90
11922;DHT22;6021;51.182;3.160;2023-03-14T11:10:38;7.10;99.90
11922;DHT22;6021;51.182;3.160;2023-03-14T11:13:25;6.80;99.90
11922;DHT22;6021;51.182;3.160;2023-03-14T11:21:37;6.40;99.90
11922;DHT22;6021;51.182;3.160;2023-03-14T11:24:26;6.30;99.90
11922;DHT22;6021;51.182;3.160;2023-03-14T11:27:22;6.30;99.90
11922;DHT22;6021;51.182;3.160;2023-03-14T11:29:53;6.40;99.90
11922;DHT22;6021;51.182;3.160;2023-03-14T11:32:35;6.20;99.90
11922;DHT22;6021;51.182;3.160;2023-03-14T11:35:04;6.00;99.90
11922;DHT22;6021;51.182;3.160;2023-03-14T11:37:47;5.70;99.90
11922;DHT22;6021;51.182;3.160;2023-03-14T11:40:25;5.90;99.90
11922;DHT22;6021;51.182;3.160;2023-03-14T11:45:49;5.90;99.90
11922;DHT22;6021;51.182;3.160;2023-03-14T11:48:45;6.00;99.90
11922;DHT22;6021;51.182;3.160;2023-03-14T11:51:22;6.00;99.90
11922;DHT22;6021;51.182;3.160;2023-03-14T11:54:02;6.50;99.90
11922;DHT22;6021;51.182;3.160;2023-03-14T11:56:39;6.10;99.90
11922;DHT22;6021;51.182;3.160;2023-03-14T11:59:12;6.50;99.90
11922;DHT22;6021;51.182;3.160;2023-03-14T12:02:03;6.40;99.90
11922;DHT22;6021;51.182;3.160;2023-03-14T12:04:39;6.40;99.90
11922;DHT22;6021;51.182;3.160;2023-03-14T12:07:51;6.30;99.90
11922;DHT22;6021;51.182;3.160;2023-03-14T12:09:38;6.40;99.90
11922;DHT22;6021;51.182;3.160;2023-03-14T12:12:10;6.30;99.90
11922;DHT22;6021;51.182;3.160;2023-03-14T12:14:44;6.20;99.90
11922;DHT22;6021;51.182;3.160;2023-03-14T12:19:47;5.70;99.90
11922;DHT22;6021;51.182;3.160;2023-03-14T12:22:30;5.80;99.90
11922;DHT22;6021;51.182;3.160;2023-03-14T12:30:37;5.60;99.90
11922;DHT22;6021;51.182;3.160;2023-03-14T12:36:02;5.50;99.90
11922;DHT22;6021;51.182;3.160;2023-03-14T12:38:49;5.50;99.90
11922;DHT22;6021;51.182;3.160;2023-03-14T12:41:43;5.60;99.90
11922;DHT22;6021;51.182;3.160;2023-03-14T12:43:56;5.90;99.90
11922;DHT22;6021;51.182;3.160;2023-03-14T12:46:27;5.70;99.90
11922;DHT22;6021;51.182;3.160;2023-03-14T12:49:04;5.80;99.90
11922;DHT22;6021;51.182;3.160;2023-03-14T12:51:36;6.10;99.90
11922;DHT22;6021;51.182;3.160;2023-03-14T12:54:15;6.20;99.90
11922;DHT22;6021;51.182;3.160;2023-03-14T12:59:47;6.00;99.90
11922;DHT22;6021;51.182;3.160;2023-03-14T13:02:28;5.90;99.90
11922;DHT22;6021;51.182;3.160;2023-03-14T13:10:35;5.60;99.90
11922;DHT22;6021;51.182;3.160;2023-03-14T13:15:59;5.60;99.90
11922;DHT22;6021;51.182;3.160;2023-03-14T13:18:37;5.50;99.90
11922;DHT22;6021;51.182;3.160;2023-03-14T13:21:18;5.40;99.90
11922;DHT22;6021;51.182;3.160;2023-03-14T13:23:58;5.30;99.90
11922;DHT22;6021;51.182;3.160;2023-03-14T13:26:35;5.20;99.90
11922;DHT22;6021;51.182;3.160;2023-03-14T13:29:24;5.40;99.90
11922;DHT22;6021;51.182;3.160;2023-03-14T13:31:55;5.30;99.90
11922;DHT22;6021;51.182;3.160;2023-03-14T13:34:28;5.30;99.90
11922;DHT22;6021;51.182;3.160;2023-03-14T13:36:57;5.20;99.90
11922;DHT22;6021;51.182;3.160;2023-03-14T13:39:27;5.20;99.90
11922;DHT22;6021;51.182;3.160;2023-03-14T13:42:00;5.50;99.90
11922;DHT22;6021;51.182;3.160;2023-03-14T13:44:35;5.20;99.90
11922;DHT22;6021;51.182;3.160;2023-03-14T13:47:09;5.20;99.90
11922;DHT22;6021;51.182;3.160;2023-03-14T13:49:37;5.00;99.90
11922;DHT22;6021;51.182;3.160;2023-03-14T13:54:55;4.70;99.90
11922;DHT22;6021;51.182;3.160;2023-03-14T13:57:24;4.70;99.90
11922;DHT22;6021;51.182;3.160;2023-03-14T14:00:04;5.00;99.90
11922;DHT22;6021;51.182;3.160;2023-03-14T14:02:36;5.30;99.90
11922;DHT22;6021;51.182;3.160;2023-03-14T14:05:05;5.40;99.90
11922;DHT22;6021;51.182;3.160;2023-03-14T14:07:34;5.80;99.90
11922;DHT22;6021;51.182;3.160;2023-03-14T14:10:02;5.60;99.90
11922;DHT22;6021;51.182;3.160;2023-03-14T14:12:36;5.50;99.90
11922;DHT22;6021;51.182;3.160;2023-03-14T14:15:19;5.70;99.90
11922;DHT22;6021;51.182;3.160;2023-03-14T14:17:52;5.70;99.90
11922;DHT22;6021;51.182;3.160;2023-03-14T14:20:30;5.70;99.90
11922;DHT22;6021;51.182;3.160;2023-03-14T14:23:05;5.80;99.90
11922;DHT22;6021;51.182;3.160;2023-03-14T14:25:35;5.70;99.90
11922;DHT22;6021;51.182;3.160;2023-03-14T14:33:59;5.90;99.90
11922;DHT22;6021;51.182;3.160;2023-03-14T14:39:17;5.80;99.90
11922;DHT22;6021;51.182;3.160;2023-03-14T14:41:48;6.20;99.90
11922;DHT22;6021;51.182;3.160;2023-03-14T14:44:28;6.10;99.90
11922;DHT22;6021;51.182;3.160;2023-03-14T14:46:51;6.40;99.90
11922;DHT22;6021;51.182;3.160;2023-03-14T14:49:20;6.10;99.90
11922;DHT22;6021;51.182;3.160;2023-03-14T14:51:50;6.40;99.90
11922;DHT22;6021;51.182;3.160;2023-03-14T14:54:31;6.70;99.90
11922;DHT22;6021;51.182;3.160;2023-03-14T14:56:52;6.30;60.70
11922;DHT22;6021;51.182;3.160;2023-03-14T14:59:26;6.40;42.00
11922;DHT22;6021;51.182;3.160;2023-03-14T15:02:02;6.30;53.90
11922;DHT22;6021;51.182;3.160;2023-03-14T15:04:27;6.40;99.90
11922;DHT22;6021;51.182;3.160;2023-03-14T15:06:57;6.60;99.90
11922;DHT22;6021;51.182;3.160;2023-03-14T15:09:25;6.60;47.00
11922;DHT22;6021;51.182;3.160;2023-03-14T15:11:54;6.60;92.70
11922;DHT22;6021;51.182;3.160;2023-03-14T15:14:22;6.50;9.80
11922;DHT22;6021;51.182;3.160;2023-03-14T15:16:51;6.50;1.00
11922;DHT22;6021;51.182;3.160;2023-03-14T15:19:21;6.50;1.00
11922;DHT22;6021;51.182;3.160;2023-03-14T15:21:52;6.50;1.00
11922;DHT22;6021;51.182;3.160;2023-03-14T15:24:21;6.60;1.00
11922;DHT22;6021;51.182;3.160;2023-03-14T15:26:50;6.50;1.00
11922;DHT22;6021;51.182;3.160;2023-03-14T15:29:19;6.60;1.00
11922;DHT22;6021;51.182;3.160;2023-03-14T15:31:47;6.60;1.00
11922;DHT22;6021;51.182;3.160;2023-03-14T15:34:16;6.50;1.00
11922;DHT22;6021;51.182;3.160;2023-03-14T15:36:44;6.50;1.00
11922;DHT22;6021;51.182;3.160;2023-03-14T15:39:12;6.50;1.00
11922;DHT22;6021;51.182;3.160;2023-03-14T15:41:41;6.50;1.00
11922;DHT22;6021;51.182;3.160;2023-03-14T15:44:09;6.70;1.00
11922;DHT22;6021;51.182;3.160;2023-03-14T15:46:37;6.10;1.00
11922;DHT22;6021;51.182;3.160;2023-03-14T15:49:07;6.10;1.00
11922;DHT22;6021;51.182;3.160;2023-03-14T15:51:36;6.00;1.00
11922;DHT22;6021;51.182;3.160;2023-03-14T15:54:04;6.30;1.00
11922;DHT22;6021;51.182;3.160;2023-03-14T15:56:32;6.20;1.00
11922;DHT22;6021;51.182;3.160;2023-03-14T15:59:01;6.50;1.00
11922;DHT22;6021;51.182;3.160;2023-03-14T16:01:29;6.20;1.00
11922;DHT22;6021;51.182;3.160;2023-03-14T16:03:57;6.40;22.90
11922;DHT22;6021;51.182;3.160;2023-03-14T16:06:26;6.30;27.90
11922;DHT22;6021;51.182;3.160;2023-03-14T16:08:54;6.70;81.40
11922;DHT22;6021;51.182;3.160;2023-03-14T16:11:23;6.90;38.30
11922;DHT22;6021;51.182;3.160;2023-03-14T16:13:51;6.90;33.00
11922;DHT22;6021;51.182;3.160;2023-03-14T16:16:19;6.90;31.50
11922;DHT22;6021;51.182;3.160;2023-03-14T16:18:48;7.10;6.30
11922;DHT22;6021;51.182;3.160;2023-03-14T16:21:18;6.80;12.50
11922;DHT22;6021;51.182;3.160;2023-03-14T16:23:47;6.50;3.90
11922;DHT22;6021;51.182;3.160;2023-03-14T16:26:17;6.60;2.00
11922;DHT22;6021;51.182;3.160;2023-03-14T16:28:47;6.30;31.20
11922;DHT22;6021;51.182;3.160;2023-03-14T16:31:18;6.50;36.60
11922;DHT22;6021;51.182;3.160;2023-03-14T16:33:51;6.30;35.20
11922;DHT22;6021;51.182;3.160;2023-03-14T16:36:20;6.50;58.60
11922;DHT22;6021;51.182;3.160;2023-03-14T16:38:48;6.40;56.50
11922;DHT22;6021;51.182;3.160;2023-03-14T16:41:19;6.40;90.60
11922;DHT22;6021;51.182;3.160;2023-03-14T16:43:47;6.30;88.10
11922;DHT22;6021;51.182;3.160;2023-03-14T16:46:20;6.40;92.30
11922;DHT22;6021;51.182;3.160;2023-03-14T16:48:49;6.00;97.10
11922;DHT22;6021;51.182;3.160;2023-03-14T16:51:18;6.20;99.90
11922;DHT22;6021;51.182;3.160;2023-03-14T16:53:46;5.90;99.90
11922;DHT22;6021;51.182;3.160;2023-03-14T16:56:15;5.80;99.90
11922;DHT22;6021;51.182;3.160;2023-03-14T16:58:44;6.00;99.90
11922;DHT22;6021;51.182;3.160;2023-03-14T17:01:14;6.20;99.90
11922;DHT22;6021;51.182;3.160;2023-03-14T17:03:48;6.00;99.90
11922;DHT22;6021;51.182;3.160;2023-03-14T17:06:25;5.80;99.90
11922;DHT22;6021;51.182;3.160;2023-03-14T17:08:55;5.80;99.90
11922;DHT22;6021;51.182;3.160;2023-03-14T17:11:24;5.90;99.90
11922;DHT22;6021;51.182;3.160;2023-03-14T17:13:53;5.80;99.90
11922;DHT22;6021;51.182;3.160;2023-03-14T17:16:21;5.80;99.90
11922;DHT22;6021;51.182;3.160;2023-03-14T17:18:49;5.80;99.90
11922;DHT22;6021;51.182;3.160;2023-03-14T17:21:18;5.80;99.90
11922;DHT22;6021;51.182;3.160;2023-03-14T17:23:46;5.70;99.90
11922;DHT22;6021;51.182;3.160;2023-03-14T17:26:15;5.60;99.90
11922;DHT22;6021;51.182;3.160;2023-03-14T17:28:45;5.60;99.90
11922;DHT22;6021;51.182;3.160;2023-03-14T17:31:17;5.50;99.90
11922;DHT22;6021;51.182;3.160;2023-03-14T17:33:46;5.20;99.90
11922;DHT22;6021;51.182;3.160;2023-03-14T17:36:17;5.40;99.90
11922;DHT22;6021;51.182;3.160;2023-03-14T17:38:45;5.20;99.90
11922;DHT22;6021;51.182;3.160;2023-03-14T17:41:14;5.40;99.90
11922;DHT22;6021;51.182;3.160;2023-03-14T17:43:43;5.20;99.90
11922;DHT22;6021;51.182;3.160;2023-03-14T17:46:13;5.00;99.90
11922;DHT22;6021;51.182;3.160;2023-03-14T17:48:44;5.20;99.90
11922;DHT22;6021;51.182;3.160;2023-03-14T17:51:13;5.10;99.90
11922;DHT22;6021;51.182;3.160;2023-03-14T17:53:42;5.00;99.90